createdAt,value
2018-11-22T12:17:41.014Z,31.65
2018-11-22T12:20:10.990Z,31.25
2018-11-22T12:22:40.742Z,31.46
2018-11-22T12:25:11.371Z,30.79
2018-11-22T12:27:40.505Z,31.06
2018-11-22T12:30:14.192Z,31.14
2018-11-22T12:33:51.453Z,30.65
2018-11-22T12:36:25.663Z,31.10
2018-11-22T12:38:54.384Z,30.64
2018-11-22T12:41:23.126Z,30.46
2018-11-22T12:43:51.791Z,30.53
2018-11-22T12:46:20.585Z,30.43
2018-11-22T12:48:49.244Z,30.38
2018-11-22T12:51:17.993Z,30.20
2018-11-22T12:53:46.644Z,30.11
2018-11-22T12:56:15.349Z,30.02
2018-11-22T12:58:44.014Z,30.57
2018-11-22T13:01:13.324Z,29.92
2018-11-22T13:03:42.021Z,29.97
2018-11-22T13:06:10.698Z,29.82
2018-11-22T13:08:39.374Z,30.10
2018-11-22T13:11:08.104Z,30.33
2018-11-22T13:13:36.780Z,30.17
2018-11-22T13:16:05.953Z,29.63
2018-11-22T13:18:34.727Z,29.67
2018-11-22T13:21:03.978Z,30.02
2018-11-22T13:23:32.679Z,29.57
2018-11-22T13:26:01.418Z,30.07
2018-11-22T13:28:30.252Z,29.45
2018-11-22T13:30:58.896Z,29.34
2018-11-22T13:33:27.577Z,29.32
2018-11-22T13:35:56.311Z,29.56
2018-11-22T13:38:24.966Z,29.28
2018-11-22T13:40:53.756Z,29.21
2018-11-22T13:43:22.553Z,29.68
2018-11-22T13:45:51.215Z,29.29
2018-11-22T13:48:19.959Z,29.81
2018-11-22T13:50:48.610Z,29.10
2018-11-22T13:53:20.455Z,29.07
2018-11-22T13:55:46.015Z,29.56
2018-11-22T13:58:14.705Z,29.14
2018-11-22T14:00:43.369Z,28.96
2018-11-22T14:03:12.164Z,29.31
2018-11-22T14:05:40.895Z,29.34
2018-11-22T14:08:09.579Z,28.80
2018-11-22T14:10:38.254Z,29.43
2018-11-22T14:13:06.979Z,28.74
2018-11-22T14:15:35.708Z,28.74
2018-11-22T14:18:05.799Z,28.75
2018-11-22T14:20:35.766Z,28.70
2018-11-22T14:23:04.530Z,29.27
2018-11-22T14:25:33.259Z,28.67
2018-11-22T14:28:01.917Z,28.65
2018-11-22T14:30:33.314Z,28.68
2018-11-22T14:33:02.046Z,28.91
2018-11-22T14:35:30.740Z,28.67
2018-11-22T14:37:59.458Z,29.09
2018-11-22T14:40:29.570Z,28.75
2018-11-22T14:42:58.611Z,29.07
2018-11-22T14:45:28.233Z,28.53
2018-11-22T14:47:58.161Z,29.01
2018-11-22T14:50:32.655Z,28.58
2018-11-22T14:53:06.302Z,28.72
2018-11-22T14:55:34.942Z,28.31
2018-11-22T14:58:03.618Z,28.41
2018-11-22T15:00:32.320Z,28.86
2018-11-22T15:03:01.076Z,28.46
2018-11-22T15:05:29.830Z,28.63
2018-11-22T15:07:58.508Z,28.37
2018-11-22T15:10:27.248Z,28.32
2018-11-22T15:12:55.892Z,28.27
2018-11-22T15:15:25.847Z,28.32
2018-11-22T15:17:54.514Z,28.76
2018-11-22T15:20:23.206Z,28.23
2018-11-22T15:22:52.786Z,28.59
2018-11-22T15:25:26.673Z,28.11
2018-11-22T15:27:55.483Z,28.17
2018-11-22T15:30:25.681Z,28.61
2018-11-22T15:32:54.407Z,28.09
2018-11-22T15:35:24.550Z,28.69
2018-11-22T15:37:53.627Z,28.12
2018-11-22T15:40:23.443Z,28.69
2018-11-22T15:42:54.579Z,28.01
2018-11-22T15:45:24.639Z,28.00
2018-11-22T15:47:53.371Z,28.14
2018-11-22T15:50:23.547Z,27.91
2018-11-22T15:52:52.314Z,27.98
2018-11-22T15:55:21.631Z,28.45
2018-11-22T15:57:51.559Z,28.42
2018-11-22T16:00:24.962Z,28.37
2018-11-22T16:02:54.329Z,27.84
2018-11-22T16:05:23.732Z,28.18
2018-11-22T16:07:52.442Z,27.75
2018-11-22T16:10:26.834Z,28.35
2018-11-22T16:12:54.043Z,28.10
2018-11-22T16:15:25.854Z,28.19
2018-11-22T16:17:54.559Z,27.76
2018-11-22T16:20:23.297Z,28.01
2018-11-22T16:22:52.006Z,27.69
2018-11-22T16:25:20.840Z,27.58
2018-11-22T16:27:49.612Z,28.04
2018-11-22T16:30:20.946Z,28.05
2018-11-22T16:32:49.748Z,28.21
2018-11-22T16:36:48.233Z,27.57
2018-11-22T16:39:17.058Z,27.55
2018-11-22T16:41:45.789Z,27.46
2018-11-22T16:44:14.497Z,27.97
2018-11-22T16:46:43.283Z,27.49
2018-11-22T16:49:12.006Z,28.02
2018-11-22T16:51:41.002Z,28.05
2018-11-22T16:54:09.727Z,27.90
2018-11-22T16:56:38.411Z,27.70
2018-11-22T16:59:07.151Z,27.29
2018-11-22T17:01:35.953Z,27.29
2018-11-22T17:04:04.709Z,27.38
2018-11-22T17:06:33.413Z,27.28
2018-11-22T17:09:02.217Z,27.28
2018-11-22T17:11:33.274Z,27.75
2018-11-22T17:13:59.709Z,27.52
2018-11-22T17:16:28.468Z,27.79
2018-11-22T17:18:57.265Z,27.19
2018-11-22T17:21:25.989Z,27.73
2018-11-22T17:23:54.768Z,27.18
2018-11-22T17:26:23.512Z,27.67
2018-11-22T17:28:52.234Z,27.25
2018-11-22T17:31:20.978Z,27.15
2018-11-22T17:33:49.730Z,27.61
2018-11-22T17:36:18.456Z,27.71
2018-11-22T17:38:48.119Z,27.66
2018-11-22T17:41:16.835Z,27.03
2018-11-22T17:43:45.559Z,27.59
2018-11-22T17:46:14.382Z,26.80
2018-11-22T17:48:43.167Z,27.59
2018-11-22T17:51:11.892Z,27.02
2018-11-22T17:53:40.755Z,26.95
2018-11-22T17:56:09.526Z,27.04
2018-11-22T17:58:38.225Z,27.16
2018-11-22T18:01:07.044Z,27.42
2018-11-22T18:03:35.818Z,27.28
2018-11-22T18:06:04.557Z,27.28
2018-11-22T18:08:33.232Z,27.55
2018-11-22T18:11:01.951Z,28.00
2018-11-22T18:13:30.703Z,28.03
2018-11-22T18:16:00.732Z,28.06
2018-11-22T18:18:30.099Z,27.45
2018-11-22T18:20:58.892Z,27.61
2018-11-22T18:23:27.569Z,27.54
2018-11-22T18:25:56.414Z,28.13
2018-11-22T18:28:25.146Z,28.01
2018-11-22T18:30:53.879Z,27.50
2018-11-22T18:33:22.747Z,27.98
2018-11-22T18:35:51.553Z,27.92
2018-11-22T18:38:20.323Z,28.02
2018-11-22T18:40:49.139Z,27.97
2018-11-22T18:43:17.849Z,28.02
2018-11-22T18:45:47.422Z,27.74
2018-11-22T18:48:17.333Z,27.35
2018-11-22T18:50:46.985Z,27.89
2018-11-22T18:53:15.158Z,27.88
2018-11-22T18:55:43.900Z,27.97
2018-11-22T18:58:12.737Z,27.34
2018-11-22T19:00:43.030Z,27.38
2018-11-22T19:03:13.430Z,27.36
2018-11-22T19:05:48.603Z,27.62
2018-11-22T19:08:17.390Z,27.88
2018-11-22T19:10:46.227Z,27.27
2018-11-22T19:13:15.516Z,27.73
2018-11-22T19:15:45.879Z,27.62
2018-11-22T19:18:14.809Z,27.86
2018-11-22T19:20:44.532Z,27.80
2018-11-22T19:23:13.785Z,27.24
2018-11-22T19:28:12.368Z,27.57
2018-11-22T19:30:43.051Z,27.21
2018-11-22T19:33:13.496Z,27.41
2018-11-22T19:35:43.886Z,27.14
2018-11-22T19:38:12.608Z,27.59
2018-11-22T19:40:42.098Z,27.77
2018-11-22T19:43:11.389Z,27.24
2018-11-22T19:45:42.665Z,27.18
2018-11-22T19:48:11.444Z,27.15
2018-11-22T19:50:40.247Z,27.51
2018-11-22T19:53:10.480Z,27.66
2018-11-22T19:56:09.884Z,27.13
2018-11-22T19:58:38.785Z,27.25
2018-11-22T20:01:07.899Z,27.15
2018-11-22T20:03:36.390Z,27.65
2018-11-22T20:06:06.193Z,27.54
2018-11-22T20:08:34.949Z,27.20
2018-11-22T20:11:03.993Z,27.05
2018-11-22T20:13:32.807Z,27.71
2018-11-22T20:16:01.617Z,27.63
2018-11-22T20:18:30.440Z,27.37
2018-11-22T20:20:59.260Z,27.08
2018-11-22T20:23:27.996Z,27.02
2018-11-22T20:25:56.724Z,27.08
2018-11-22T20:28:25.490Z,27.49
2018-11-22T20:30:54.444Z,27.54
2018-11-22T20:33:23.206Z,27.49
2018-11-22T20:35:52.636Z,27.03
2018-11-22T20:38:21.409Z,27.11
2018-11-22T20:40:53.351Z,27.48
2018-11-22T20:43:19.104Z,27.10
2018-11-22T20:45:47.838Z,27.48
2018-11-22T20:48:16.612Z,26.97
2018-11-22T20:50:45.449Z,26.85
2018-11-22T20:53:14.177Z,26.83
2018-11-22T20:55:42.878Z,27.00
2018-11-22T20:58:11.703Z,26.98
2018-11-22T21:00:41.759Z,27.00
2018-11-22T21:03:10.529Z,27.21
2018-11-22T21:05:39.557Z,26.92
2018-11-22T21:08:08.988Z,27.08
2018-11-22T21:10:37.940Z,26.93
2018-11-22T21:13:06.921Z,27.00
2018-11-22T21:15:36.361Z,27.61
2018-11-22T21:18:07.541Z,27.13
2018-11-22T21:20:39.905Z,27.14
2018-11-22T21:23:08.678Z,27.24
2018-11-22T21:25:37.440Z,27.36
2018-11-22T21:28:06.667Z,27.84
2018-11-22T21:30:36.804Z,27.66
2018-11-22T21:33:05.845Z,28.54
2018-11-22T21:35:34.976Z,29.00
2018-11-22T21:38:06.190Z,29.72
2018-11-22T21:40:35.328Z,29.89
2018-11-22T21:43:04.121Z,30.36
2018-11-22T21:45:33.724Z,30.67
2018-11-22T21:48:02.686Z,30.77
2018-11-22T21:50:31.388Z,30.93
2018-11-22T21:53:00.146Z,31.42
2018-11-22T21:55:29.670Z,31.61
2018-11-22T21:57:59.573Z,31.68
2018-11-22T22:00:33.222Z,31.89
2018-11-22T22:03:06.177Z,31.47
2018-11-22T22:05:35.042Z,31.93
2018-11-22T22:08:03.924Z,31.50
2018-11-22T22:10:32.583Z,32.13
2018-11-22T22:13:01.247Z,32.36
2018-11-22T22:15:31.247Z,32.42
2018-11-22T22:17:59.968Z,32.18
2018-11-22T22:20:30.241Z,32.62
2018-11-22T22:22:59.822Z,32.11
2018-11-22T22:25:28.214Z,32.55
2018-11-22T22:27:57.414Z,32.41
2018-11-22T22:30:31.659Z,32.04
2018-11-22T22:33:02.230Z,32.03
2018-11-22T22:35:30.990Z,32.40
2018-11-22T22:37:59.678Z,32.10
2018-11-22T22:40:29.223Z,32.88
2018-11-22T22:42:58.553Z,32.65
2018-11-22T22:45:28.379Z,32.68
2018-11-22T22:50:27.898Z,32.57
2018-11-22T22:52:57.916Z,32.13
2018-11-22T22:55:27.030Z,32.48
2018-11-22T22:57:55.799Z,32.55
2018-11-22T23:01:02.819Z,32.00
2018-11-22T23:03:31.733Z,32.32
2018-11-22T23:06:00.480Z,32.51
2018-11-22T23:08:29.146Z,31.95
2018-11-22T23:10:57.900Z,32.30
2018-11-22T23:13:26.641Z,31.86
2018-11-22T23:15:55.365Z,32.34
2018-11-22T23:18:24.109Z,31.77
2018-11-22T23:20:52.824Z,31.71
2018-11-22T23:23:21.571Z,32.04
2018-11-22T23:25:50.325Z,32.15
2018-11-22T23:28:18.983Z,31.50
2018-11-22T23:30:47.626Z,31.69
2018-11-22T23:33:16.450Z,31.44
2018-11-22T23:35:45.152Z,31.31
2018-11-22T23:38:13.828Z,31.59
2018-11-22T23:40:42.559Z,31.21
2018-11-22T23:43:11.284Z,31.06
2018-11-22T23:45:39.955Z,31.00
2018-11-22T23:48:08.630Z,31.48
2018-11-22T23:50:38.359Z,31.42
2018-11-22T23:53:07.076Z,31.32
2018-11-22T23:55:35.744Z,31.02
2018-11-22T23:58:04.598Z,31.29
